sensor_id;sensor_type;location;lat;lon;timestamp;P1;durP1;ratioP1;P2;durP2;ratioP2
73699;SDS011;62005;50.082;8.988;2022-09-17T00:02:24;2.45;;;0.60;;
73699;SDS011;62005;50.082;8.988;2022-09-17T00:04:50;3.53;;;0.47;;
73699;SDS011;62005;50.082;8.988;2022-09-17T00:07:16;1.13;;;0.52;;
73699;SDS011;62005;50.082;8.988;2022-09-17T00:09:42;1.70;;;0.20;;
73699;SDS011;62005;50.082;8.988;2022-09-17T00:12:08;2.13;;;0.50;;
73699;SDS011;62005;50.082;8.988;2022-09-17T00:14:33;2.35;;;0.22;;
73699;SDS011;62005;50.082;8.988;2022-09-17T00:16:59;1.90;;;0.40;;
73699;SDS011;62005;50.082;8.988;2022-09-17T00:19:24;3.00;;;0.20;;
73699;SDS011;62005;50.082;8.988;2022-09-17T00:21:50;1.40;;;0.75;;
73699;SDS011;62005;50.082;8.988;2022-09-17T00:24:16;5.20;;;0.38;;
73699;SDS011;62005;50.082;8.988;2022-09-17T00:26:43;1.90;;;0.50;;
73699;SDS011;62005;50.082;8.988;2022-09-17T00:29:09;2.25;;;0.45;;
73699;SDS011;62005;50.082;8.988;2022-09-17T00:31:35;2.70;;;0.22;;
73699;SDS011;62005;50.082;8.988;2022-09-17T00:34:02;1.15;;;0.32;;
73699;SDS011;62005;50.082;8.988;2022-09-17T00:36:28;3.50;;;0.70;;
73699;SDS011;62005;50.082;8.988;2022-09-17T00:38:57;1.42;;;0.28;;
73699;SDS011;62005;50.082;8.988;2022-09-17T00:41:25;1.67;;;0.22;;
73699;SDS011;62005;50.082;8.988;2022-09-17T00:43:53;2.30;;;0.82;;
73699;SDS011;62005;50.082;8.988;2022-09-17T00:48:55;2.78;;;0.52;;
73699;SDS011;62005;50.082;8.988;2022-09-17T00:51:27;6.32;;;0.75;;
73699;SDS011;62005;50.082;8.988;2022-09-17T00:54:00;4.20;;;0.80;;
73699;SDS011;62005;50.082;8.988;2022-09-17T00:56:29;5.10;;;0.70;;
73699;SDS011;62005;50.082;8.988;2022-09-17T00:58:57;2.22;;;0.52;;
73699;SDS011;62005;50.082;8.988;2022-09-17T01:01:25;1.80;;;0.35;;
73699;SDS011;62005;50.082;8.988;2022-09-17T01:03:50;2.20;;;0.47;;
73699;SDS011;62005;50.082;8.988;2022-09-17T01:06:25;3.13;;;0.60;;
73699;SDS011;62005;50.082;8.988;2022-09-17T01:14:43;2.03;;;0.32;;
73699;SDS011;62005;50.082;8.988;2022-09-17T01:34:11;4.72;;;0.90;;
73699;SDS011;62005;50.082;8.988;2022-09-17T01:36:44;2.30;;;0.73;;
73699;SDS011;62005;50.082;8.988;2022-09-17T01:39:24;5.68;;;0.47;;
73699;SDS011;62005;50.082;8.988;2022-09-17T01:44:44;3.63;;;0.63;;
73699;SDS011;62005;50.082;8.988;2022-09-17T01:47:18;1.85;;;0.47;;
73699;SDS011;62005;50.082;8.988;2022-09-17T01:49:49;2.80;;;0.73;;
73699;SDS011;62005;50.082;8.988;2022-09-17T01:52:20;1.75;;;0.35;;
73699;SDS011;62005;50.082;8.988;2022-09-17T01:54:48;1.70;;;0.30;;
73699;SDS011;62005;50.082;8.988;2022-09-17T01:57:21;5.60;;;0.70;;
73699;SDS011;62005;50.082;8.988;2022-09-17T01:59:57;4.03;;;0.40;;
73699;SDS011;62005;50.082;8.988;2022-09-17T02:02:28;3.40;;;0.25;;
73699;SDS011;62005;50.082;8.988;2022-09-17T02:08:14;4.63;;;0.30;;
73699;SDS011;62005;50.082;8.988;2022-09-17T02:10:46;6.30;;;0.40;;
73699;SDS011;62005;50.082;8.988;2022-09-17T02:13:33;3.88;;;0.22;;
73699;SDS011;62005;50.082;8.988;2022-09-17T02:21:46;3.08;;;0.40;;
73699;SDS011;62005;50.082;8.988;2022-09-17T02:27:13;2.35;;;0.30;;
73699;SDS011;62005;50.082;8.988;2022-09-17T02:29:43;3.45;;;0.32;;
73699;SDS011;62005;50.082;8.988;2022-09-17T02:32:09;4.25;;;0.15;;
73699;SDS011;62005;50.082;8.988;2022-09-17T02:34:36;2.15;;;0.20;;
73699;SDS011;62005;50.082;8.988;2022-09-17T02:37:02;2.05;;;0.22;;
73699;SDS011;62005;50.082;8.988;2022-09-17T02:39:28;2.45;;;0.35;;
73699;SDS011;62005;50.082;8.988;2022-09-17T02:50:23;9.05;;;0.43;;
73699;SDS011;62005;50.082;8.988;2022-09-17T02:53:16;1.10;;;0.13;;
73699;SDS011;62005;50.082;8.988;2022-09-17T02:55:59;2.50;;;0.52;;
73699;SDS011;62005;50.082;8.988;2022-09-17T02:58:39;1.70;;;0.20;;
73699;SDS011;62005;50.082;8.988;2022-09-17T03:01:34;3.25;;;0.32;;
73699;SDS011;62005;50.082;8.988;2022-09-17T03:04:06;6.13;;;0.52;;
73699;SDS011;62005;50.082;8.988;2022-09-17T03:06:34;0.73;;;0.22;;
73699;SDS011;62005;50.082;8.988;2022-09-17T03:08:59;2.03;;;0.40;;
73699;SDS011;62005;50.082;8.988;2022-09-17T03:11:25;7.82;;;0.77;;
73699;SDS011;62005;50.082;8.988;2022-09-17T03:13:51;4.25;;;0.43;;
73699;SDS011;62005;50.082;8.988;2022-09-17T03:16:16;2.45;;;0.13;;
73699;SDS011;62005;50.082;8.988;2022-09-17T03:18:42;4.05;;;0.77;;
73699;SDS011;62005;50.082;8.988;2022-09-17T03:21:07;2.58;;;0.38;;
73699;SDS011;62005;50.082;8.988;2022-09-17T03:23:33;2.97;;;0.47;;
73699;SDS011;62005;50.082;8.988;2022-09-17T03:25:58;3.53;;;0.32;;
73699;SDS011;62005;50.082;8.988;2022-09-17T03:28:23;2.67;;;0.22;;
73699;SDS011;62005;50.082;8.988;2022-09-17T03:30:50;3.35;;;0.52;;
73699;SDS011;62005;50.082;8.988;2022-09-17T03:33:16;0.80;;;0.22;;
73699;SDS011;62005;50.082;8.988;2022-09-17T03:35:42;1.97;;;0.10;;
73699;SDS011;62005;50.082;8.988;2022-09-17T03:38:08;2.33;;;0.38;;
73699;SDS011;62005;50.082;8.988;2022-09-17T03:40:33;3.03;;;0.50;;
73699;SDS011;62005;50.082;8.988;2022-09-17T03:42:58;2.07;;;0.27;;
73699;SDS011;62005;50.082;8.988;2022-09-17T03:45:24;1.67;;;0.40;;
73699;SDS011;62005;50.082;8.988;2022-09-17T03:47:49;2.77;;;0.57;;
73699;SDS011;62005;50.082;8.988;2022-09-17T03:50:14;4.00;;;0.30;;
73699;SDS011;62005;50.082;8.988;2022-09-17T03:52:41;3.28;;;0.70;;
73699;SDS011;62005;50.082;8.988;2022-09-17T03:55:09;5.55;;;0.40;;
73699;SDS011;62005;50.082;8.988;2022-09-17T03:57:35;2.88;;;0.38;;
73699;SDS011;62005;50.082;8.988;2022-09-17T04:00:00;3.03;;;0.32;;
73699;SDS011;62005;50.082;8.988;2022-09-17T04:02:26;4.50;;;0.73;;
73699;SDS011;62005;50.082;8.988;2022-09-17T04:04:51;4.50;;;0.57;;
73699;SDS011;62005;50.082;8.988;2022-09-17T04:07:17;4.93;;;0.52;;
73699;SDS011;62005;50.082;8.988;2022-09-17T04:09:43;3.40;;;0.40;;
73699;SDS011;62005;50.082;8.988;2022-09-17T04:12:08;5.33;;;0.40;;
73699;SDS011;62005;50.082;8.988;2022-09-17T04:14:34;4.27;;;0.30;;
73699;SDS011;62005;50.082;8.988;2022-09-17T04:16:59;2.30;;;0.40;;
73699;SDS011;62005;50.082;8.988;2022-09-17T04:19:24;3.33;;;0.60;;
73699;SDS011;62005;50.082;8.988;2022-09-17T04:21:50;2.20;;;0.40;;
73699;SDS011;62005;50.082;8.988;2022-09-17T04:24:15;2.30;;;0.30;;
73699;SDS011;62005;50.082;8.988;2022-09-17T04:26:40;1.63;;;0.30;;
73699;SDS011;62005;50.082;8.988;2022-09-17T04:29:06;2.35;;;0.22;;
73699;SDS011;62005;50.082;8.988;2022-09-17T04:31:31;2.50;;;0.30;;
73699;SDS011;62005;50.082;8.988;2022-09-17T04:33:58;1.73;;;0.80;;
73699;SDS011;62005;50.082;8.988;2022-09-17T04:36:24;3.20;;;0.32;;
73699;SDS011;62005;50.082;8.988;2022-09-17T04:38:49;4.63;;;0.40;;
73699;SDS011;62005;50.082;8.988;2022-09-17T04:41:14;3.08;;;0.32;;
73699;SDS011;62005;50.082;8.988;2022-09-17T04:43:40;2.72;;;0.32;;
73699;SDS011;62005;50.082;8.988;2022-09-17T04:46:05;2.10;;;0.43;;
73699;SDS011;62005;50.082;8.988;2022-09-17T04:48:31;4.55;;;0.80;;
73699;SDS011;62005;50.082;8.988;2022-09-17T04:50:56;2.28;;;0.40;;
73699;SDS011;62005;50.082;8.988;2022-09-17T04:53:22;2.40;;;0.15;;
73699;SDS011;62005;50.082;8.988;2022-09-17T04:55:47;7.10;;;0.63;;
73699;SDS011;62005;50.082;8.988;2022-09-17T04:58:13;4.63;;;0.53;;
73699;SDS011;62005;50.082;8.988;2022-09-17T05:00:38;4.70;;;0.43;;
73699;SDS011;62005;50.082;8.988;2022-09-17T05:03:04;3.60;;;0.63;;
73699;SDS011;62005;50.082;8.988;2022-09-17T05:05:29;2.00;;;0.90;;
73699;SDS011;62005;50.082;8.988;2022-09-17T05:07:55;2.47;;;0.52;;
73699;SDS011;62005;50.082;8.988;2022-09-17T05:10:21;2.70;;;0.60;;
73699;SDS011;62005;50.082;8.988;2022-09-17T05:12:48;4.00;;;0.50;;
73699;SDS011;62005;50.082;8.988;2022-09-17T05:15:18;2.70;;;0.80;;
73699;SDS011;62005;50.082;8.988;2022-09-17T05:17:44;4.88;;;0.50;;
73699;SDS011;62005;50.082;8.988;2022-09-17T05:20:09;4.25;;;0.47;;
73699;SDS011;62005;50.082;8.988;2022-09-17T05:22:39;4.35;;;0.63;;
73699;SDS011;62005;50.082;8.988;2022-09-17T05:25:09;5.95;;;0.57;;
73699;SDS011;62005;50.082;8.988;2022-09-17T05:27:35;3.33;;;0.57;;
73699;SDS011;62005;50.082;8.988;2022-09-17T05:30:00;4.57;;;0.57;;
73699;SDS011;62005;50.082;8.988;2022-09-17T05:32:26;3.07;;;0.60;;
73699;SDS011;62005;50.082;8.988;2022-09-17T05:34:52;4.38;;;0.47;;
73699;SDS011;62005;50.082;8.988;2022-09-17T05:37:18;1.80;;;0.47;;
73699;SDS011;62005;50.082;8.988;2022-09-17T05:39:43;4.50;;;0.50;;
73699;SDS011;62005;50.082;8.988;2022-09-17T05:42:08;1.75;;;0.43;;
73699;SDS011;62005;50.082;8.988;2022-09-17T05:44:34;3.00;;;0.52;;
73699;SDS011;62005;50.082;8.988;2022-09-17T05:46:59;3.80;;;0.67;;
73699;SDS011;62005;50.082;8.988;2022-09-17T05:49:24;7.97;;;0.90;;
73699;SDS011;62005;50.082;8.988;2022-09-17T05:51:50;3.23;;;0.50;;
73699;SDS011;62005;50.082;8.988;2022-09-17T05:54:16;6.28;;;0.95;;
73699;SDS011;62005;50.082;8.988;2022-09-17T05:56:41;3.63;;;0.52;;
73699;SDS011;62005;50.082;8.988;2022-09-17T05:59:06;2.57;;;0.63;;
73699;SDS011;62005;50.082;8.988;2022-09-17T06:01:32;4.50;;;0.43;;
73699;SDS011;62005;50.082;8.988;2022-09-17T06:03:57;4.63;;;0.37;;
73699;SDS011;62005;50.082;8.988;2022-09-17T06:06:22;7.10;;;0.80;;
73699;SDS011;62005;50.082;8.988;2022-09-17T06:08:48;6.35;;;0.68;;
73699;SDS011;62005;50.082;8.988;2022-09-17T06:11:13;2.57;;;0.70;;
73699;SDS011;62005;50.082;8.988;2022-09-17T06:13:39;5.07;;;0.37;;
73699;SDS011;62005;50.082;8.988;2022-09-17T06:16:04;3.33;;;0.87;;
73699;SDS011;62005;50.082;8.988;2022-09-17T06:18:30;2.55;;;0.68;;
73699;SDS011;62005;50.082;8.988;2022-09-17T06:20:59;4.40;;;0.68;;
73699;SDS011;62005;50.082;8.988;2022-09-17T06:23:31;2.97;;;0.73;;
73699;SDS011;62005;50.082;8.988;2022-09-17T06:26:01;4.00;;;0.63;;
73699;SDS011;62005;50.082;8.988;2022-09-17T06:28:29;3.47;;;0.80;;
73699;SDS011;62005;50.082;8.988;2022-09-17T06:30:58;3.55;;;0.80;;
73699;SDS011;62005;50.082;8.988;2022-09-17T06:33:25;1.90;;;0.70;;
73699;SDS011;62005;50.082;8.988;2022-09-17T06:35:57;3.13;;;0.63;;
73699;SDS011;62005;50.082;8.988;2022-09-17T06:38:28;5.38;;;1.00;;
73699;SDS011;62005;50.082;8.988;2022-09-17T06:40:55;2.47;;;0.82;;
73699;SDS011;62005;50.082;8.988;2022-09-17T06:43:21;7.95;;;0.80;;
73699;SDS011;62005;50.082;8.988;2022-09-17T06:46:05;4.45;;;0.98;;
73699;SDS011;62005;50.082;8.988;2022-09-17T06:48:33;4.28;;;0.82;;
73699;SDS011;62005;50.082;8.988;2022-09-17T06:51:03;3.65;;;0.85;;
73699;SDS011;62005;50.082;8.988;2022-09-17T06:53:31;4.78;;;0.88;;
73699;SDS011;62005;50.082;8.988;2022-09-17T06:55:57;2.47;;;0.80;;
73699;SDS011;62005;50.082;8.988;2022-09-17T06:58:25;3.97;;;1.02;;
73699;SDS011;62005;50.082;8.988;2022-09-17T07:00:56;4.85;;;0.95;;
73699;SDS011;62005;50.082;8.988;2022-09-17T07:03:25;6.03;;;1.00;;
73699;SDS011;62005;50.082;8.988;2022-09-17T07:05:51;2.22;;;0.77;;
73699;SDS011;62005;50.082;8.988;2022-09-17T07:08:16;4.27;;;1.00;;
73699;SDS011;62005;50.082;8.988;2022-09-17T07:10:42;6.25;;;0.82;;
73699;SDS011;62005;50.082;8.988;2022-09-17T07:13:07;6.05;;;1.00;;
73699;SDS011;62005;50.082;8.988;2022-09-17T07:15:34;2.78;;;1.10;;
73699;SDS011;62005;50.082;8.988;2022-09-17T07:18:06;4.55;;;1.33;;
73699;SDS011;62005;50.082;8.988;2022-09-17T07:20:32;4.53;;;1.25;;
73699;SDS011;62005;50.082;8.988;2022-09-17T07:22:58;4.47;;;1.40;;
73699;SDS011;62005;50.082;8.988;2022-09-17T07:25:23;5.87;;;1.80;;
73699;SDS011;62005;50.082;8.988;2022-09-17T07:27:50;5.32;;;1.63;;
73699;SDS011;62005;50.082;8.988;2022-09-17T07:30:16;8.70;;;1.98;;
73699;SDS011;62005;50.082;8.988;2022-09-17T07:32:43;8.13;;;1.80;;
73699;SDS011;62005;50.082;8.988;2022-09-17T07:35:08;10.43;;;2.33;;
73699;SDS011;62005;50.082;8.988;2022-09-17T07:37:34;5.35;;;1.45;;
73699;SDS011;62005;50.082;8.988;2022-09-17T07:40:00;7.18;;;1.33;;
73699;SDS011;62005;50.082;8.988;2022-09-17T07:42:25;7.82;;;1.42;;
73699;SDS011;62005;50.082;8.988;2022-09-17T07:44:51;7.40;;;1.60;;
73699;SDS011;62005;50.082;8.988;2022-09-17T07:47:17;3.88;;;1.10;;
73699;SDS011;62005;50.082;8.988;2022-09-17T07:49:43;6.75;;;1.35;;
73699;SDS011;62005;50.082;8.988;2022-09-17T07:52:09;4.22;;;1.30;;
73699;SDS011;62005;50.082;8.988;2022-09-17T07:54:34;6.57;;;1.20;;
73699;SDS011;62005;50.082;8.988;2022-09-17T07:57:03;5.07;;;1.33;;
73699;SDS011;62005;50.082;8.988;2022-09-17T07:59:28;4.03;;;1.40;;
73699;SDS011;62005;50.082;8.988;2022-09-17T08:01:54;5.20;;;1.30;;
73699;SDS011;62005;50.082;8.988;2022-09-17T08:04:19;5.97;;;1.20;;
73699;SDS011;62005;50.082;8.988;2022-09-17T08:06:45;4.72;;;1.58;;
73699;SDS011;62005;50.082;8.988;2022-09-17T08:09:14;6.15;;;1.40;;
73699;SDS011;62005;50.082;8.988;2022-09-17T08:11:41;7.13;;;1.40;;
73699;SDS011;62005;50.082;8.988;2022-09-17T08:14:09;7.72;;;0.68;;
73699;SDS011;62005;50.082;8.988;2022-09-17T08:16:35;7.10;;;1.10;;
73699;SDS011;62005;50.082;8.988;2022-09-17T08:19:00;6.70;;;1.42;;
73699;SDS011;62005;50.082;8.988;2022-09-17T08:21:26;3.33;;;0.95;;
73699;SDS011;62005;50.082;8.988;2022-09-17T08:23:52;6.82;;;1.60;;
73699;SDS011;62005;50.082;8.988;2022-09-17T08:26:18;4.93;;;1.10;;
73699;SDS011;62005;50.082;8.988;2022-09-17T08:28:47;4.78;;;1.05;;
73699;SDS011;62005;50.082;8.988;2022-09-17T08:31:19;7.80;;;1.42;;
73699;SDS011;62005;50.082;8.988;2022-09-17T08:33:46;6.78;;;1.30;;
73699;SDS011;62005;50.082;8.988;2022-09-17T08:36:12;5.22;;;1.05;;
73699;SDS011;62005;50.082;8.988;2022-09-17T08:38:39;9.32;;;1.60;;
73699;SDS011;62005;50.082;8.988;2022-09-17T08:43:35;8.20;;;1.45;;
73699;SDS011;62005;50.082;8.988;2022-09-17T08:46:06;8.43;;;1.00;;
73699;SDS011;62005;50.082;8.988;2022-09-17T08:48:38;4.22;;;1.00;;
73699;SDS011;62005;50.082;8.988;2022-09-17T08:54:22;6.75;;;1.23;;
73699;SDS011;62005;50.082;8.988;2022-09-17T09:00:16;3.25;;;0.82;;
73699;SDS011;62005;50.082;8.988;2022-09-17T09:05:42;6.55;;;0.85;;
73699;SDS011;62005;50.082;8.988;2022-09-17T09:10:54;6.20;;;0.82;;
73699;SDS011;62005;50.082;8.988;2022-09-17T09:13:23;5.72;;;1.08;;
73699;SDS011;62005;50.082;8.988;2022-09-17T09:15:57;6.50;;;0.82;;
73699;SDS011;62005;50.082;8.988;2022-09-17T09:18:28;3.47;;;0.70;;
73699;SDS011;62005;50.082;8.988;2022-09-17T09:21:06;5.63;;;0.77;;
73699;SDS011;62005;50.082;8.988;2022-09-17T09:23:54;2.90;;;0.93;;
73699;SDS011;62005;50.082;8.988;2022-09-17T09:26:33;2.70;;;0.65;;
73699;SDS011;62005;50.082;8.988;2022-09-17T09:29:04;4.20;;;0.50;;
73699;SDS011;62005;50.082;8.988;2022-09-17T09:31:45;6.40;;;0.85;;
73699;SDS011;62005;50.082;8.988;2022-09-17T09:34:11;6.55;;;0.68;;
73699;SDS011;62005;50.082;8.988;2022-09-17T09:39:06;2.93;;;0.53;;
73699;SDS011;62005;50.082;8.988;2022-09-17T09:41:44;3.08;;;0.60;;
73699;SDS011;62005;50.082;8.988;2022-09-17T09:44:13;5.70;;;0.50;;
73699;SDS011;62005;50.082;8.988;2022-09-17T09:49:07;4.93;;;0.70;;
73699;SDS011;62005;50.082;8.988;2022-09-17T09:55:10;3.60;;;0.68;;
73699;SDS011;62005;50.082;8.988;2022-09-17T09:58:01;4.30;;;0.38;;
73699;SDS011;62005;50.082;8.988;2022-09-17T10:00:39;2.85;;;0.55;;
73699;SDS011;62005;50.082;8.988;2022-09-17T10:05:37;3.03;;;0.52;;
73699;SDS011;62005;50.082;8.988;2022-09-17T10:08:13;4.22;;;0.43;;
73699;SDS011;62005;50.082;8.988;2022-09-17T10:10:58;3.85;;;0.40;;
73699;SDS011;62005;50.082;8.988;2022-09-17T10:13:33;3.63;;;0.30;;
73699;SDS011;62005;50.082;8.988;2022-09-17T10:16:17;3.28;;;1.10;;
73699;SDS011;62005;50.082;8.988;2022-09-17T10:18:49;5.90;;;0.70;;
73699;SDS011;62005;50.082;8.988;2022-09-17T10:21:35;2.25;;;0.52;;
73699;SDS011;62005;50.082;8.988;2022-09-17T10:24:49;3.88;;;0.85;;
73699;SDS011;62005;50.082;8.988;2022-09-17T10:27:01;2.75;;;0.63;;
73699;SDS011;62005;50.082;8.988;2022-09-17T10:29:29;3.17;;;0.45;;
73699;SDS011;62005;50.082;8.988;2022-09-17T10:31:55;4.38;;;0.40;;
73699;SDS011;62005;50.082;8.988;2022-09-17T10:34:23;2.45;;;0.20;;
73699;SDS011;62005;50.082;8.988;2022-09-17T10:36:55;3.10;;;0.32;;
73699;SDS011;62005;50.082;8.988;2022-09-17T10:42:31;2.25;;;0.38;;
73699;SDS011;62005;50.082;8.988;2022-09-17T10:44:51;4.80;;;0.35;;
73699;SDS011;62005;50.082;8.988;2022-09-17T10:49:46;2.78;;;0.40;;
73699;SDS011;62005;50.082;8.988;2022-09-17T11:00:32;1.40;;;0.22;;
73699;SDS011;62005;50.082;8.988;2022-09-17T11:06:13;2.97;;;0.20;;
73699;SDS011;62005;50.082;8.988;2022-09-17T11:09:05;3.97;;;0.35;;
73699;SDS011;62005;50.082;8.988;2022-09-17T11:12:15;2.78;;;0.17;;
73699;SDS011;62005;50.082;8.988;2022-09-17T11:15:47;2.95;;;0.10;;
73699;SDS011;62005;50.082;8.988;2022-09-17T11:21:08;2.72;;;0.15;;
73699;SDS011;62005;50.082;8.988;2022-09-17T11:30:01;2.72;;;0.35;;
73699;SDS011;62005;50.082;8.988;2022-09-17T11:35:14;1.38;;;0.10;;
73699;SDS011;62005;50.082;8.988;2022-09-17T11:37:48;3.15;;;0.20;;
73699;SDS011;62005;50.082;8.988;2022-09-17T11:40:21;2.42;;;0.70;;
73699;SDS011;62005;50.082;8.988;2022-09-17T11:42:54;4.28;;;0.43;;
73699;SDS011;62005;50.082;8.988;2022-09-17T11:45:28;1.65;;;0.10;;
73699;SDS011;62005;50.082;8.988;2022-09-17T11:48:05;3.92;;;0.20;;
73699;SDS011;62005;50.082;8.988;2022-09-17T11:50:45;1.65;;;0.30;;
73699;SDS011;62005;50.082;8.988;2022-09-17T11:55:56;2.20;;;0.10;;
73699;SDS011;62005;50.082;8.988;2022-09-17T11:58:41;1.95;;;0.20;;
73699;SDS011;62005;50.082;8.988;2022-09-17T12:01:12;2.80;;;0.13;;
73699;SDS011;62005;50.082;8.988;2022-09-17T12:03:48;4.53;;;0.28;;
73699;SDS011;62005;50.082;8.988;2022-09-17T12:06:26;4.55;;;0.43;;
73699;SDS011;62005;50.082;8.988;2022-09-17T12:09:17;3.78;;;0.25;;
73699;SDS011;62005;50.082;8.988;2022-09-17T12:17:37;4.60;;;0.52;;
73699;SDS011;62005;50.082;8.988;2022-09-17T12:20:07;3.72;;;0.20;;
73699;SDS011;62005;50.082;8.988;2022-09-17T12:22:47;1.52;;;0.08;;
73699;SDS011;62005;50.082;8.988;2022-09-17T12:25:16;1.50;;;0.10;;
73699;SDS011;62005;50.082;8.988;2022-09-17T12:30:34;6.25;;;2.30;;
73699;SDS011;62005;50.082;8.988;2022-09-17T12:36:07;2.00;;;0.20;;
73699;SDS011;62005;50.082;8.988;2022-09-17T12:44:54;1.48;;;0.20;;
73699;SDS011;62005;50.082;8.988;2022-09-17T12:50:31;4.18;;;0.17;;
73699;SDS011;62005;50.082;8.988;2022-09-17T12:53:22;1.55;;;0.10;;
73699;SDS011;62005;50.082;8.988;2022-09-17T13:01:02;1.75;;;0.35;;
73699;SDS011;62005;50.082;8.988;2022-09-17T13:03:43;4.07;;;0.13;;
73699;SDS011;62005;50.082;8.988;2022-09-17T13:06:25;3.95;;;0.10;;
73699;SDS011;62005;50.082;8.988;2022-09-17T13:11:55;1.40;;;0.17;;
73699;SDS011;62005;50.082;8.988;2022-09-17T13:14:46;3.85;;;0.30;;
73699;SDS011;62005;50.082;8.988;2022-09-17T13:17:22;2.78;;;0.10;;
73699;SDS011;62005;50.082;8.988;2022-09-17T13:19:54;3.72;;;0.10;;
73699;SDS011;62005;50.082;8.988;2022-09-17T13:22:25;2.40;;;0.10;;
73699;SDS011;62005;50.082;8.988;2022-09-17T13:25:01;3.40;;;0.30;;
73699;SDS011;62005;50.082;8.988;2022-09-17T13:27:29;2.58;;;0.22;;
73699;SDS011;62005;50.082;8.988;2022-09-17T13:37:53;2.38;;;0.10;;
73699;SDS011;62005;50.082;8.988;2022-09-17T13:40:25;2.50;;;0.10;;
73699;SDS011;62005;50.082;8.988;2022-09-17T13:45:27;2.08;;;0.10;;
73699;SDS011;62005;50.082;8.988;2022-09-17T13:47:57;0.93;;;0.00;;
73699;SDS011;62005;50.082;8.988;2022-09-17T13:50:35;1.33;;;0.05;;
73699;SDS011;62005;50.082;8.988;2022-09-17T13:53:06;1.83;;;0.13;;
73699;SDS011;62005;50.082;8.988;2022-09-17T13:58:20;1.45;;;0.40;;
73699;SDS011;62005;50.082;8.988;2022-09-17T14:05:55;3.90;;;0.10;;
73699;SDS011;62005;50.082;8.988;2022-09-17T14:13:51;3.08;;;0.00;;
73699;SDS011;62005;50.082;8.988;2022-09-17T14:16:24;4.43;;;0.00;;
73699;SDS011;62005;50.082;8.988;2022-09-17T14:21:33;2.30;;;0.10;;
73699;SDS011;62005;50.082;8.988;2022-09-17T14:24:03;0.93;;;0.10;;
73699;SDS011;62005;50.082;8.988;2022-09-17T14:27:05;2.70;;;0.10;;
73699;SDS011;62005;50.082;8.988;2022-09-17T14:29:43;0.63;;;0.20;;
73699;SDS011;62005;50.082;8.988;2022-09-17T14:35:39;2.45;;;0.10;;
73699;SDS011;62005;50.082;8.988;2022-09-17T14:41:02;1.48;;;0.03;;
73699;SDS011;62005;50.082;8.988;2022-09-17T14:43:46;0.85;;;0.00;;
73699;SDS011;62005;50.082;8.988;2022-09-17T14:46:20;1.30;;;0.00;;
73699;SDS011;62005;50.082;8.988;2022-09-17T14:48:47;3.67;;;0.98;;
73699;SDS011;62005;50.082;8.988;2022-09-17T14:53:42;1.58;;;0.20;;
73699;SDS011;62005;50.082;8.988;2022-09-17T14:56:12;1.55;;;0.08;;
73699;SDS011;62005;50.082;8.988;2022-09-17T14:58:40;0.93;;;0.15;;
73699;SDS011;62005;50.082;8.988;2022-09-17T15:01:27;0.95;;;0.10;;
73699;SDS011;62005;50.082;8.988;2022-09-17T15:06:38;1.08;;;0.10;;
73699;SDS011;62005;50.082;8.988;2022-09-17T15:09:14;1.60;;;0.20;;
73699;SDS011;62005;50.082;8.988;2022-09-17T15:11:41;2.83;;;0.08;;
73699;SDS011;62005;50.082;8.988;2022-09-17T15:14:14;2.30;;;0.15;;
73699;SDS011;62005;50.082;8.988;2022-09-17T15:16:55;2.42;;;0.10;;
73699;SDS011;62005;50.082;8.988;2022-09-17T15:19:25;0.73;;;0.10;;
73699;SDS011;62005;50.082;8.988;2022-09-17T15:21:53;0.85;;;0.10;;
73699;SDS011;62005;50.082;8.988;2022-09-17T15:27:17;1.15;;;0.20;;
73699;SDS011;62005;50.082;8.988;2022-09-17T15:29:48;1.75;;;0.10;;
73699;SDS011;62005;50.082;8.988;2022-09-17T15:32:18;1.60;;;0.13;;
73699;SDS011;62005;50.082;8.988;2022-09-17T15:34:44;1.58;;;0.10;;
73699;SDS011;62005;50.082;8.988;2022-09-17T15:37:20;0.40;;;0.10;;
73699;SDS011;62005;50.082;8.988;2022-09-17T15:39:50;1.33;;;0.30;;
73699;SDS011;62005;50.082;8.988;2022-09-17T15:42:19;1.05;;;0.10;;
73699;SDS011;62005;50.082;8.988;2022-09-17T15:44:48;1.25;;;0.10;;
73699;SDS011;62005;50.082;8.988;2022-09-17T15:52:57;1.10;;;0.17;;
73699;SDS011;62005;50.082;8.988;2022-09-17T15:55:41;1.15;;;0.00;;
73699;SDS011;62005;50.082;8.988;2022-09-17T15:58:23;2.05;;;0.13;;
73699;SDS011;62005;50.082;8.988;2022-09-17T16:08:49;0.45;;;0.10;;
73699;SDS011;62005;50.082;8.988;2022-09-17T16:11:20;2.72;;;0.10;;
73699;SDS011;62005;50.082;8.988;2022-09-17T16:16:21;4.78;;;0.28;;
73699;SDS011;62005;50.082;8.988;2022-09-17T16:18:58;0.70;;;0.10;;
73699;SDS011;62005;50.082;8.988;2022-09-17T16:21:23;1.40;;;0.20;;
73699;SDS011;62005;50.082;8.988;2022-09-17T16:23:49;0.60;;;0.10;;
73699;SDS011;62005;50.082;8.988;2022-09-17T16:26:15;0.85;;;0.20;;
73699;SDS011;62005;50.082;8.988;2022-09-17T16:28:43;3.40;;;0.20;;
73699;SDS011;62005;50.082;8.988;2022-09-17T16:31:13;1.98;;;0.20;;
73699;SDS011;62005;50.082;8.988;2022-09-17T16:33:39;0.32;;;0.10;;
73699;SDS011;62005;50.082;8.988;2022-09-17T16:36:05;2.08;;;0.00;;
73699;SDS011;62005;50.082;8.988;2022-09-17T16:38:30;0.85;;;0.08;;
73699;SDS011;62005;50.082;8.988;2022-09-17T16:40:56;1.13;;;0.00;;
73699;SDS011;62005;50.082;8.988;2022-09-17T16:43:21;0.50;;;0.30;;
73699;SDS011;62005;50.082;8.988;2022-09-17T16:45:59;0.57;;;0.03;;
73699;SDS011;62005;50.082;8.988;2022-09-17T16:48:26;0.40;;;0.00;;
73699;SDS011;62005;50.082;8.988;2022-09-17T16:50:52;0.45;;;0.00;;
73699;SDS011;62005;50.082;8.988;2022-09-17T16:53:17;0.37;;;0.10;;
73699;SDS011;62005;50.082;8.988;2022-09-17T16:55:42;0.40;;;0.10;;
73699;SDS011;62005;50.082;8.988;2022-09-17T16:58:08;1.27;;;0.00;;
73699;SDS011;62005;50.082;8.988;2022-09-17T17:00:34;0.52;;;0.08;;
73699;SDS011;62005;50.082;8.988;2022-09-17T17:03:01;0.77;;;0.10;;
73699;SDS011;62005;50.082;8.988;2022-09-17T17:05:27;0.40;;;0.03;;
73699;SDS011;62005;50.082;8.988;2022-09-17T17:07:52;0.80;;;0.10;;
73699;SDS011;62005;50.082;8.988;2022-09-17T17:10:22;2.88;;;0.10;;
73699;SDS011;62005;50.082;8.988;2022-09-17T17:12:50;3.47;;;0.20;;
73699;SDS011;62005;50.082;8.988;2022-09-17T17:15:15;1.17;;;0.00;;
73699;SDS011;62005;50.082;8.988;2022-09-17T17:17:41;2.00;;;0.17;;
73699;SDS011;62005;50.082;8.988;2022-09-17T17:20:07;3.42;;;0.13;;
73699;SDS011;62005;50.082;8.988;2022-09-17T17:22:34;1.58;;;0.08;;
73699;SDS011;62005;50.082;8.988;2022-09-17T17:25:01;4.15;;;0.80;;
73699;SDS011;62005;50.082;8.988;2022-09-17T17:27:27;0.85;;;0.28;;
73699;SDS011;62005;50.082;8.988;2022-09-17T17:29:53;2.40;;;0.22;;
73699;SDS011;62005;50.082;8.988;2022-09-17T17:32:19;2.00;;;0.20;;
73699;SDS011;62005;50.082;8.988;2022-09-17T17:34:45;0.70;;;0.10;;
73699;SDS011;62005;50.082;8.988;2022-09-17T17:37:10;1.67;;;0.13;;
73699;SDS011;62005;50.082;8.988;2022-09-17T17:39:39;1.73;;;0.10;;
73699;SDS011;62005;50.082;8.988;2022-09-17T17:42:05;1.05;;;0.10;;
73699;SDS011;62005;50.082;8.988;2022-09-17T17:44:31;2.05;;;0.20;;
73699;SDS011;62005;50.082;8.988;2022-09-17T17:46:56;0.40;;;0.20;;
73699;SDS011;62005;50.082;8.988;2022-09-17T17:49:21;0.87;;;0.10;;
73699;SDS011;62005;50.082;8.988;2022-09-17T17:51:47;2.20;;;0.30;;
73699;SDS011;62005;50.082;8.988;2022-09-17T17:54:12;3.75;;;0.38;;
73699;SDS011;62005;50.082;8.988;2022-09-17T17:56:38;1.13;;;0.10;;
73699;SDS011;62005;50.082;8.988;2022-09-17T17:59:03;2.70;;;0.25;;
73699;SDS011;62005;50.082;8.988;2022-09-17T18:01:28;1.07;;;0.00;;
73699;SDS011;62005;50.082;8.988;2022-09-17T18:03:59;1.60;;;0.25;;
73699;SDS011;62005;50.082;8.988;2022-09-17T18:06:27;1.40;;;0.30;;
73699;SDS011;62005;50.082;8.988;2022-09-17T18:08:53;5.30;;;1.20;;
73699;SDS011;62005;50.082;8.988;2022-09-17T18:11:19;1.98;;;0.40;;
73699;SDS011;62005;50.082;8.988;2022-09-17T18:13:45;1.45;;;0.20;;
73699;SDS011;62005;50.082;8.988;2022-09-17T18:16:12;1.23;;;0.20;;